Time;durP1;ratioP1;P1;durP2;ratioP2;P2;SDS_P1;SDS_P2;PMS_P1;PMS_P2;Temp;Humidity;BMP_temperature;BMP_pressure;BME280_temperature;BME280_humidity;BME280_pressure;Samples;Min_cycle;Max_cycle;Signal;HPM_P1;HPM_P2
2020/09/13 00:01:36;;;;;;;2.70;2.05;;;;;;;20.90;66.92;101091.55;;;;-49
2020/09/13 00:04:36;;;;;;;2.71;1.83;;;;;;;20.90;66.98;101094.32;;;;-49
2020/09/13 00:07:36;;;;;;;2.26;2.06;;;;;;;20.91;66.95;101099.45;;;;-49
2020/09/13 00:10:36;;;;;;;3.06;2.14;;;;;;;20.91;66.94;101102.95;;;;-49
2020/09/13 00:13:36;;;;;;;2.73;1.93;;;;;;;20.89;66.95;101101.70;;;;-51
2020/09/13 00:16:36;;;;;;;2.70;2.01;;;;;;;20.89;66.95;101102.94;;;;-50
2020/09/13 00:19:36;;;;;;;3.02;1.93;;;;;;;20.89;66.97;101100.66;;;;-50
2020/09/13 00:22:36;;;;;;;3.42;1.89;;;;;;;20.89;66.96;101099.34;;;;-50
2020/09/13 00:25:36;;;;;;;2.14;1.94;;;;;;;20.88;66.98;101105.13;;;;-50
2020/09/13 00:28:36;;;;;;;2.69;2.05;;;;;;;20.89;66.95;101114.91;;;;-50
2020/09/13 00:31:36;;;;;;;2.56;2.00;;;;;;;20.88;66.96;101116.79;;;;-50
2020/09/13 00:34:36;;;;;;;2.41;2.02;;;;;;;20.88;66.94;101121.03;;;;-50
2020/09/13 00:37:36;;;;;;;3.09;2.11;;;;;;;20.87;66.99;101121.48;;;;-50
2020/09/13 00:40:36;;;;;;;2.69;2.01;;;;;;;20.87;66.98;101125.39;;;;-51
2020/09/13 00:43:36;;;;;;;2.17;1.93;;;;;;;20.86;66.98;101125.48;;;;-50
2020/09/13 00:46:36;;;;;;;2.60;2.21;;;;;;;20.86;66.98;101124.99;;;;-50
2020/09/13 00:49:36;;;;;;;2.12;1.94;;;;;;;20.86;67.01;101131.19;;;;-50
2020/09/13 00:52:36;;;;;;;2.69;2.18;;;;;;;20.86;67.02;101136.08;;;;-50
2020/09/13 00:55:36;;;;;;;2.91;2.19;;;;;;;20.85;67.01;101134.91;;;;-50
2020/09/13 00:58:36;;;;;;;2.31;2.11;;;;;;;20.85;67.00;101136.13;;;;-51
2020/09/13 01:01:36;;;;;;;2.65;2.09;;;;;;;20.85;67.00;101137.77;;;;-57
2020/09/13 01:04:36;;;;;;;2.33;2.06;;;;;;;20.85;67.00;101146.80;;;;-58
2020/09/13 01:07:36;;;;;;;2.35;2.13;;;;;;;20.85;67.02;101148.67;;;;-57
2020/09/13 01:10:36;;;;;;;3.29;2.12;;;;;;;20.84;67.00;101139.47;;;;-57
2020/09/13 01:13:36;;;;;;;2.59;2.15;;;;;;;20.84;66.97;101140.94;;;;-57
2020/09/13 01:16:36;;;;;;;2.18;1.96;;;;;;;20.84;66.96;101145.66;;;;-57
2020/09/13 01:19:36;;;;;;;2.37;2.15;;;;;;;20.84;66.97;101149.25;;;;-58
2020/09/13 01:22:36;;;;;;;2.27;2.01;;;;;;;20.84;66.97;101155.60;;;;-57
2020/09/13 01:25:36;;;;;;;2.74;2.05;;;;;;;20.84;66.96;101155.20;;;;-57
2020/09/13 01:28:36;;;;;;;2.22;2.00;;;;;;;20.84;66.97;101158.30;;;;-57
2020/09/13 01:31:36;;;;;;;3.03;2.03;;;;;;;20.83;66.99;101160.62;;;;-57
2020/09/13 01:34:36;;;;;;;2.49;2.01;;;;;;;20.83;66.96;101162.83;;;;-57
2020/09/13 01:37:36;;;;;;;2.85;2.00;;;;;;;20.82;67.02;101167.47;;;;-57
2020/09/13 01:40:36;;;;;;;2.20;2.00;;;;;;;20.82;66.99;101170.16;;;;-58
2020/09/13 01:43:36;;;;;;;2.37;2.17;;;;;;;20.82;67.04;101168.13;;;;-57
2020/09/13 01:46:36;;;;;;;2.39;2.05;;;;;;;20.81;66.98;101161.41;;;;-57
2020/09/13 01:49:36;;;;;;;2.20;2.00;;;;;;;20.82;66.99;101163.89;;;;-57
2020/09/13 01:52:36;;;;;;;2.30;2.10;;;;;;;20.81;66.98;101158.81;;;;-58
2020/09/13 01:55:36;;;;;;;2.19;1.99;;;;;;;20.81;66.99;101162.72;;;;-58
2020/09/13 01:58:36;;;;;;;1.93;1.83;;;;;;;20.81;67.01;101166.88;;;;-57
2020/09/13 02:01:36;;;;;;;2.39;2.19;;;;;;;20.81;67.00;101176.81;;;;-57
2020/09/13 02:04:36;;;;;;;2.29;1.96;;;;;;;20.80;67.02;101183.91;;;;-57
2020/09/13 02:07:36;;;;;;;2.19;1.99;;;;;;;20.81;66.99;101182.68;;;;-57
2020/09/13 02:10:36;;;;;;;2.18;1.93;;;;;;;20.81;67.01;101183.33;;;;-58
2020/09/13 02:13:36;;;;;;;2.29;1.98;;;;;;;20.79;67.00;101180.23;;;;-57
2020/09/13 02:16:36;;;;;;;3.21;2.12;;;;;;;20.80;66.97;101178.36;;;;-57
2020/09/13 02:19:36;;;;;;;2.20;2.00;;;;;;;20.79;66.99;101179.39;;;;-57
2020/09/13 02:22:36;;;;;;;2.18;1.98;;;;;;;20.79;67.01;101185.99;;;;-57
2020/09/13 02:25:36;;;;;;;2.69;2.19;;;;;;;20.79;67.03;101191.45;;;;-57
2020/09/13 02:28:36;;;;;;;2.20;2.00;;;;;;;20.79;67.00;101187.87;;;;-58
2020/09/13 02:31:36;;;;;;;2.32;2.01;;;;;;;20.78;66.98;101191.12;;;;-57
2020/09/13 02:34:36;;;;;;;2.22;2.02;;;;;;;20.79;66.98;101191.70;;;;-57
2020/09/13 02:37:36;;;;;;;2.19;1.99;;;;;;;20.78;67.02;101198.05;;;;-57
2020/09/13 02:40:36;;;;;;;2.37;2.17;;;;;;;20.78;67.01;101191.12;;;;-57
2020/09/13 02:43:36;;;;;;;2.45;2.10;;;;;;;20.77;67.00;101189.91;;;;-56
2020/09/13 02:46:36;;;;;;;2.21;2.00;;;;;;;20.77;67.00;101188.69;;;;-56
2020/09/13 02:49:36;;;;;;;2.20;2.00;;;;;;;20.77;67.01;101187.59;;;;-57
2020/09/13 02:52:36;;;;;;;2.20;1.95;;;;;;;20.77;66.98;101189.47;;;;-57
2020/09/13 02:55:36;;;;;;;2.20;2.00;;;;;;;20.77;67.01;101190.77;;;;-57
2020/09/13 02:58:36;;;;;;;2.61;2.25;;;;;;;20.76;66.95;101190.94;;;;-57
2020/09/13 03:01:36;;;;;;;2.35;2.15;;;;;;;20.76;66.98;101191.42;;;;-57
2020/09/13 03:04:36;;;;;;;2.33;2.13;;;;;;;20.76;67.00;101189.39;;;;-57
2020/09/13 03:07:36;;;;;;;2.21;2.01;;;;;;;20.75;67.01;101184.09;;;;-57
2020/09/13 03:10:36;;;;;;;2.15;1.95;;;;;;;20.75;67.00;101174.81;;;;-50
2020/09/13 03:13:36;;;;;;;2.22;2.02;;;;;;;20.75;67.00;101170.98;;;;-50
2020/09/13 03:16:36;;;;;;;2.41;2.17;;;;;;;20.75;66.99;101171.14;;;;-50
2020/09/13 03:19:36;;;;;;;2.19;1.97;;;;;;;20.75;67.02;101183.91;;;;-51
2020/09/13 03:22:36;;;;;;;2.40;2.20;;;;;;;20.74;67.01;101184.97;;;;-50
2020/09/13 03:25:36;;;;;;;2.25;2.05;;;;;;;20.74;67.03;101183.91;;;;-50
2020/09/13 03:28:36;;;;;;;2.37;2.17;;;;;;;20.74;67.03;101182.93;;;;-50
2020/09/13 03:31:36;;;;;;;2.28;2.08;;;;;;;20.73;67.03;101182.52;;;;-50
2020/09/13 03:34:36;;;;;;;2.25;2.03;;;;;;;20.73;67.03;101187.90;;;;-50
2020/09/13 03:37:36;;;;;;;2.26;2.06;;;;;;;20.74;67.03;101189.53;;;;-50
2020/09/13 03:40:36;;;;;;;2.25;2.05;;;;;;;20.73;67.04;101187.22;;;;-51
2020/09/13 03:43:36;;;;;;;2.22;2.02;;;;;;;20.73;67.01;101188.20;;;;-50
2020/09/13 03:46:36;;;;;;;2.25;2.03;;;;;;;20.73;67.03;101184.20;;;;-55
2020/09/13 03:49:36;;;;;;;3.03;2.20;;;;;;;20.72;67.01;101185.51;;;;-56
2020/09/13 03:52:36;;;;;;;2.16;1.94;;;;;;;20.72;67.01;101186.89;;;;-50
2020/09/13 03:55:36;;;;;;;2.47;2.09;;;;;;;20.71;67.05;101197.48;;;;-50
2020/09/13 03:58:36;;;;;;;2.27;2.07;;;;;;;20.71;67.05;101201.80;;;;-56
2020/09/13 04:01:36;;;;;;;3.77;2.65;;;;;;;20.68;66.22;101204.76;;;;-58
2020/09/13 04:04:36;;;;;;;5.89;4.73;;;;;;;20.51;64.59;101207.36;;;;-58
2020/09/13 04:07:36;;;;;;;7.59;4.69;;;;;;;20.29;64.86;101205.19;;;;-49
2020/09/13 04:10:36;;;;;;;8.85;4.72;;;;;;;20.18;64.78;101209.96;;;;-49
2020/09/13 04:13:36;;;;;;;6.28;5.01;;;;;;;20.00;64.84;101210.08;;;;-50
2020/09/13 04:16:36;;;;;;;7.14;5.35;;;;;;;19.83;65.16;101205.73;;;;-57
2020/09/13 04:19:36;;;;;;;6.74;5.07;;;;;;;19.75;65.42;101206.25;;;;-57
2020/09/13 04:22:36;;;;;;;6.35;5.28;;;;;;;19.63;65.59;101212.42;;;;-56
2020/09/13 04:25:36;;;;;;;6.38;5.14;;;;;;;19.59;65.69;101213.92;;;;-57
2020/09/13 04:28:36;;;;;;;5.76;4.94;;;;;;;19.43;66.26;101215.91;;;;-49
2020/09/13 04:31:36;;;;;;;6.95;4.90;;;;;;;19.41;66.53;101215.30;;;;-51
2020/09/13 04:34:36;;;;;;;6.09;4.97;;;;;;;19.33;67.06;101220.99;;;;-56
2020/09/13 04:37:36;;;;;;;5.73;5.15;;;;;;;19.36;66.83;101226.19;;;;-49
2020/09/13 04:40:36;;;;;;;5.24;4.74;;;;;;;19.26;67.14;101226.48;;;;-56
2020/09/13 04:43:36;;;;;;;5.53;4.97;;;;;;;19.29;67.03;101231.08;;;;-57
2020/09/13 04:46:36;;;;;;;6.34;4.80;;;;;;;19.18;67.30;101234.04;;;;-56
2020/09/13 04:49:36;;;;;;;6.70;4.99;;;;;;;19.18;67.34;101234.69;;;;-51
2020/09/13 04:52:36;;;;;;;5.60;5.09;;;;;;;19.18;67.33;101239.16;;;;-49
2020/09/13 04:55:36;;;;;;;5.96;5.03;;;;;;;19.09;67.47;101241.99;;;;-49
2020/09/13 04:58:36;;;;;;;5.62;5.04;;;;;;;19.03;67.53;101246.17;;;;-58
2020/09/13 05:01:36;;;;;;;6.26;5.25;;;;;;;19.08;67.50;101254.14;;;;-58
2020/09/13 05:04:36;;;;;;;5.87;5.07;;;;;;;18.98;67.83;101255.88;;;;-50
2020/09/13 05:07:36;;;;;;;5.61;5.07;;;;;;;18.89;68.04;101262.84;;;;-55
2020/09/13 05:10:36;;;;;;;6.57;5.25;;;;;;;18.87;68.00;101275.31;;;;-49
2020/09/13 05:13:36;;;;;;;7.09;5.38;;;;;;;18.82;67.92;101270.71;;;;-51
2020/09/13 05:16:36;;;;;;;5.73;5.19;;;;;;;18.83;67.95;101267.66;;;;-50
2020/09/13 05:19:36;;;;;;;5.95;5.01;;;;;;;18.82;67.98;101267.22;;;;-49
2020/09/13 05:22:38;;;;;;;5.42;4.90;;;;;;;18.76;68.04;101268.88;;;;-56
2020/09/13 05:25:36;;;;;;;6.47;5.23;;;;;;;18.73;68.12;101270.48;;;;-56
2020/09/13 05:28:36;;;;;;;6.35;5.37;;;;;;;18.76;67.98;101271.64;;;;-49
2020/09/13 05:31:36;;;;;;;8.54;5.35;;;;;;;18.74;67.99;101275.73;;;;-56
2020/09/13 05:34:36;;;;;;;6.94;5.32;;;;;;;18.68;68.23;101278.52;;;;-49
2020/09/13 05:37:36;;;;;;;7.29;5.26;;;;;;;18.68;68.19;101278.52;;;;-56
2020/09/13 05:40:36;;;;;;;6.68;5.13;;;;;;;18.67;68.53;101282.13;;;;-49
2020/09/13 05:43:36;;;;;;;5.75;4.98;;;;;;;18.62;68.97;101284.45;;;;-57
2020/09/13 05:46:36;;;;;;;7.09;5.32;;;;;;;18.61;69.09;101288.07;;;;-50
2020/09/13 05:49:36;;;;;;;5.55;5.04;;;;;;;18.60;69.14;101297.48;;;;-50
2020/09/13 05:52:36;;;;;;;6.03;4.91;;;;;;;18.55;69.45;101299.58;;;;-57
2020/09/13 05:55:36;;;;;;;5.45;4.84;;;;;;;18.56;69.47;101305.42;;;;-55
2020/09/13 05:58:36;;;;;;;6.10;5.05;;;;;;;18.53;69.69;101310.32;;;;-60
2020/09/13 06:01:36;;;;;;;9.12;4.79;;;;;;;18.63;69.62;101314.27;;;;-57
2020/09/13 06:04:36;;;;;;;6.86;4.49;;;;;;;18.76;69.27;101313.25;;;;-54
2020/09/13 06:07:36;;;;;;;7.53;4.48;;;;;;;18.87;69.14;101311.94;;;;-48
2020/09/13 06:10:36;;;;;;;4.80;4.21;;;;;;;18.98;69.01;101317.94;;;;-59
2020/09/13 06:13:36;;;;;;;8.83;4.41;;;;;;;19.05;68.76;101324.17;;;;-59
2020/09/13 06:16:36;;;;;;;4.81;4.04;;;;;;;19.10;68.65;101323.73;;;;-59
2020/09/13 06:19:36;;;;;;;5.95;4.02;;;;;;;19.16;68.48;101333.20;;;;-59
2020/09/13 06:22:36;;;;;;;5.58;3.99;;;;;;;19.19;68.44;101332.61;;;;-51
2020/09/13 06:25:36;;;;;;;5.46;3.88;;;;;;;19.23;68.34;101334.48;;;;-52
2020/09/13 06:28:36;;;;;;;5.48;3.88;;;;;;;19.26;68.25;101336.36;;;;-51
2020/09/13 06:31:36;;;;;;;5.79;4.05;;;;;;;19.29;68.27;101336.32;;;;-50
2020/09/13 06:34:36;;;;;;;5.51;3.96;;;;;;;19.32;68.16;101342.41;;;;-50
2020/09/13 06:37:36;;;;;;;5.44;3.90;;;;;;;19.35;68.17;101350.92;;;;-58
2020/09/13 06:40:36;;;;;;;4.42;3.80;;;;;;;19.37;68.07;101353.31;;;;-50
2020/09/13 06:43:36;;;;;;;3.73;3.35;;;;;;;19.39;68.02;101359.70;;;;-58
2020/09/13 06:46:36;;;;;;;4.72;3.80;;;;;;;19.42;67.99;101358.36;;;;-58
2020/09/13 06:49:36;;;;;;;4.97;3.83;;;;;;;19.43;67.96;101362.06;;;;-58
2020/09/13 06:52:36;;;;;;;3.93;3.47;;;;;;;19.45;67.92;101368.61;;;;-57
2020/09/13 06:55:36;;;;;;;6.61;3.49;;;;;;;19.47;67.94;101371.34;;;;-51
2020/09/13 06:58:36;;;;;;;4.71;3.53;;;;;;;19.48;67.94;101374.02;;;;-51
2020/09/13 07:01:36;;;;;;;4.22;3.58;;;;;;;19.51;67.87;101376.51;;;;-51
2020/09/13 07:04:36;;;;;;;4.87;3.47;;;;;;;19.52;67.88;101371.67;;;;-58
2020/09/13 07:07:36;;;;;;;4.52;3.40;;;;;;;19.53;67.90;101379.43;;;;-58
2020/09/13 07:10:36;;;;;;;3.95;3.57;;;;;;;19.54;67.81;101380.91;;;;-58
2020/09/13 07:13:36;;;;;;;4.16;3.69;;;;;;;19.56;67.79;101386.80;;;;-58
2020/09/13 07:16:36;;;;;;;4.04;3.67;;;;;;;19.57;67.78;101389.19;;;;-58
2020/09/13 07:19:36;;;;;;;4.11;3.71;;;;;;;19.58;67.75;101389.52;;;;-51
2020/09/13 07:22:36;;;;;;;4.30;3.40;;;;;;;19.59;67.73;101393.70;;;;-59
2020/09/13 07:25:36;;;;;;;3.82;3.48;;;;;;;19.61;67.72;101396.19;;;;-58
2020/09/13 07:28:36;;;;;;;4.01;3.61;;;;;;;19.61;67.75;101390.09;;;;-50
2020/09/13 07:31:36;;;;;;;3.95;3.30;;;;;;;19.64;67.69;101399.81;;;;-58
2020/09/13 07:34:36;;;;;;;3.87;3.37;;;;;;;19.65;67.69;101405.27;;;;-58
2020/09/13 07:37:36;;;;;;;3.85;3.42;;;;;;;19.66;67.67;101406.77;;;;-58
2020/09/13 07:40:36;;;;;;;3.67;3.37;;;;;;;19.68;67.68;101410.30;;;;-58
2020/09/13 07:43:36;;;;;;;3.66;3.35;;;;;;;19.68;67.67;101410.39;;;;-58
2020/09/13 07:46:36;;;;;;;4.23;3.28;;;;;;;19.70;67.64;101412.22;;;;-55
2020/09/13 07:49:36;;;;;;;5.81;3.60;;;;;;;19.74;67.69;101417.54;;;;-53
2020/09/13 07:52:36;;;;;;;6.11;3.77;;;;;;;19.74;67.81;101412.66;;;;-52
2020/09/13 07:55:36;;;;;;;5.92;3.59;;;;;;;19.75;67.80;101413.56;;;;-51
2020/09/13 07:58:36;;;;;;;4.25;3.31;;;;;;;19.76;67.75;101413.76;;;;-51
2020/09/13 08:01:36;;;;;;;6.37;3.73;;;;;;;19.77;67.74;101416.20;;;;-51
2020/09/13 08:04:36;;;;;;;3.92;3.51;;;;;;;19.78;67.72;101416.56;;;;-51
2020/09/13 08:07:36;;;;;;;4.57;3.45;;;;;;;19.80;67.67;101418.64;;;;-58
2020/09/13 08:10:36;;;;;;;5.89;3.38;;;;;;;19.81;67.64;101417.75;;;;-52
2020/09/13 08:13:36;;;;;;;5.00;3.40;;;;;;;19.82;67.60;101420.72;;;;-52
2020/09/13 08:16:36;;;;;;;5.01;3.39;;;;;;;19.83;67.61;101424.38;;;;-59
2020/09/13 08:19:36;;;;;;;5.36;3.50;;;;;;;19.84;67.56;101422.67;;;;-59
2020/09/13 08:22:36;;;;;;;4.79;3.33;;;;;;;19.85;67.51;101425.81;;;;-59
2020/09/13 08:25:36;;;;;;;4.45;3.37;;;;;;;19.86;67.49;101428.37;;;;-58
2020/09/13 08:28:36;;;;;;;3.59;3.27;;;;;;;19.87;67.49;101429.02;;;;-58
2020/09/13 08:31:36;;;;;;;4.45;3.41;;;;;;;19.88;67.46;101433.66;;;;-51
2020/09/13 08:34:36;;;;;;;4.23;3.35;;;;;;;19.88;67.47;101432.80;;;;-58
2020/09/13 08:37:36;;;;;;;4.27;3.39;;;;;;;19.89;67.41;101431.50;;;;-50
2020/09/13 08:40:36;;;;;;;3.79;3.49;;;;;;;19.91;67.44;101434.14;;;;-52
2020/09/13 08:43:36;;;;;;;3.67;3.31;;;;;;;19.91;67.41;101432.92;;;;-51
2020/09/13 08:46:36;;;;;;;3.67;3.36;;;;;;;19.93;67.40;101435.00;;;;-51
2020/09/13 08:49:36;;;;;;;3.50;3.14;;;;;;;19.93;67.35;101434.02;;;;-51
2020/09/13 08:52:36;;;;;;;3.82;3.33;;;;;;;19.93;67.31;101428.90;;;;-59
2020/09/13 08:55:36;;;;;;;4.46;3.33;;;;;;;19.94;67.26;101429.59;;;;-51
2020/09/13 08:58:36;;;;;;;3.54;3.24;;;;;;;19.95;67.31;101426.34;;;;-51
2020/09/13 09:01:36;;;;;;;3.42;2.96;;;;;;;19.96;67.28;101426.99;;;;-51
2020/09/13 09:04:36;;;;;;;4.17;3.42;;;;;;;19.98;67.44;101428.25;;;;-53
2020/09/13 09:07:36;;;;;;;3.77;3.10;;;;;;;20.02;67.47;101426.95;;;;-57
2020/09/13 09:10:36;;;;;;;3.97;3.09;;;;;;;20.04;67.63;101421.95;;;;-50
2020/09/13 09:13:36;;;;;;;3.91;3.19;;;;;;;20.06;67.67;101425.73;;;;-51
2020/09/13 09:16:36;;;;;;;4.37;3.38;;;;;;;20.09;67.77;101427.84;;;;-51
2020/09/13 09:19:36;;;;;;;4.31;3.43;;;;;;;20.10;67.83;101426.78;;;;-50
2020/09/13 09:22:36;;;;;;;4.15;3.40;;;;;;;20.13;67.87;101429.75;;;;-58
2020/09/13 09:25:36;;;;;;;3.91;3.39;;;;;;;20.14;67.89;101428.81;;;;-51
2020/09/13 09:28:36;;;;;;;5.79;3.30;;;;;;;20.16;67.86;101431.30;;;;-50
2020/09/13 09:31:36;;;;;;;3.52;3.17;;;;;;;20.18;67.87;101433.37;;;;-49
2020/09/13 09:34:36;;;;;;;3.66;3.28;;;;;;;20.21;67.87;101431.70;;;;-46
2020/09/13 09:37:36;;;;;;;5.49;3.31;;;;;;;20.22;68.07;101424.33;;;;-46
2020/09/13 09:40:36;;;;;;;4.28;3.51;;;;;;;20.26;67.96;101424.81;;;;-50
2020/09/13 09:43:36;;;;;;;4.55;3.35;;;;;;;20.28;68.32;101426.23;;;;-49
2020/09/13 09:46:36;;;;;;;6.41;3.32;;;;;;;20.29;68.02;101426.33;;;;-58
2020/09/13 09:49:36;;;;;;;3.67;3.09;;;;;;;20.32;68.20;101427.20;;;;-50
2020/09/13 09:52:36;;;;;;;6.49;3.24;;;;;;;20.33;68.22;101427.21;;;;-50
2020/09/13 09:55:36;;;;;;;8.20;3.37;;;;;;;20.34;68.08;101426.76;;;;-51
2020/09/13 09:58:36;;;;;;;6.28;3.36;;;;;;;20.36;68.00;101427.20;;;;-51
2020/09/13 10:01:36;;;;;;;6.24;3.42;;;;;;;20.38;67.84;101428.46;;;;-51
2020/09/13 10:04:36;;;;;;;4.83;3.29;;;;;;;20.41;67.92;101429.07;;;;-51
2020/09/13 10:07:36;;;;;;;4.87;3.49;;;;;;;20.39;67.79;101428.62;;;;-51
2020/09/13 10:10:36;;;;;;;5.22;3.21;;;;;;;20.41;67.89;101421.82;;;;-52
2020/09/13 10:13:36;;;;;;;7.20;3.19;;;;;;;20.41;67.77;101422.64;;;;-52
2020/09/13 10:16:36;;;;;;;4.41;3.13;;;;;;;20.41;67.70;101421.66;;;;-52
2020/09/13 10:19:36;;;;;;;6.48;3.61;;;;;;;20.41;67.67;101418.81;;;;-52
2020/09/13 10:22:36;;;;;;;4.92;3.46;;;;;;;20.41;67.60;101415.47;;;;-50
2020/09/13 10:25:36;;;;;;;6.25;3.21;;;;;;;20.41;67.52;101411.40;;;;-50
2020/09/13 10:28:36;;;;;;;5.33;3.15;;;;;;;20.42;67.52;101410.42;;;;-52
2020/09/13 10:31:36;;;;;;;5.73;3.22;;;;;;;20.42;67.54;101405.38;;;;-47
2020/09/13 10:34:36;;;;;;;4.63;3.31;;;;;;;20.44;67.53;101402.64;;;;-46
2020/09/13 10:37:36;;;;;;;8.12;3.25;;;;;;;20.44;67.52;101399.47;;;;-48
2020/09/13 10:40:36;;;;;;;4.38;3.17;;;;;;;20.46;67.64;101404.09;;;;-47
2020/09/13 10:43:36;;;;;;;6.27;3.40;;;;;;;20.47;67.71;101401.82;;;;-48
2020/09/13 10:46:36;;;;;;;5.15;3.35;;;;;;;20.49;67.66;101399.41;;;;-46
2020/09/13 10:49:36;;;;;;;5.78;3.35;;;;;;;20.50;67.64;101400.34;;;;-57
2020/09/13 10:52:36;;;;;;;6.67;3.33;;;;;;;20.53;67.65;101398.42;;;;-51
2020/09/13 10:55:36;;;;;;;5.64;3.39;;;;;;;20.54;67.70;101394.76;;;;-52
2020/09/13 10:58:36;;;;;;;5.23;3.19;;;;;;;20.55;67.63;101396.59;;;;-47
2020/09/13 11:01:36;;;;;;;5.25;3.65;;;;;;;20.54;67.76;101398.51;;;;-48
2020/09/13 11:04:36;;;;;;;6.37;3.11;;;;;;;20.56;67.65;101397.73;;;;-49
2020/09/13 11:07:36;;;;;;;5.31;3.32;;;;;;;20.58;67.64;101394.50;;;;-50
2020/09/13 11:10:36;;;;;;;5.99;3.26;;;;;;;20.59;67.66;101394.65;;;;-49
2020/09/13 11:13:36;;;;;;;4.72;3.40;;;;;;;20.60;67.56;101391.80;;;;-50
2020/09/13 11:16:36;;;;;;;4.19;3.44;;;;;;;20.62;67.60;101387.59;;;;-44
2020/09/13 11:19:36;;;;;;;4.11;3.28;;;;;;;20.64;67.60;101381.52;;;;-59
2020/09/13 11:22:36;;;;;;;5.09;3.27;;;;;;;20.65;67.58;101377.45;;;;-50
2020/09/13 11:25:36;;;;;;;7.59;3.29;;;;;;;20.65;67.61;101376.27;;;;-56
2020/09/13 11:28:36;;;;;;;7.89;3.51;;;;;;;20.66;67.36;101370.31;;;;-58
2020/09/13 11:31:36;;;;;;;5.65;3.25;;;;;;;20.67;67.51;101366.52;;;;-59
2020/09/13 11:34:36;;;;;;;6.75;3.45;;;;;;;20.67;67.45;101363.34;;;;-48
2020/09/13 11:37:36;;;;;;;6.83;3.37;;;;;;;20.67;67.33;101361.20;;;;-57
2020/09/13 11:40:36;;;;;;;5.02;3.37;;;;;;;20.67;67.29;101362.37;;;;-57
2020/09/13 11:43:36;;;;;;;7.08;3.31;;;;;;;20.68;67.19;101358.78;;;;-57
2020/09/13 11:46:36;;;;;;;7.36;3.41;;;;;;;20.67;67.18;101358.46;;;;-59
2020/09/13 11:49:36;;;;;;;7.57;3.25;;;;;;;20.66;67.20;101356.23;;;;-58
2020/09/13 11:52:36;;;;;;;4.59;3.17;;;;;;;20.67;67.14;101356.91;;;;-58
2020/09/13 11:55:36;;;;;;;4.76;3.21;;;;;;;20.66;67.11;101351.99;;;;-58
2020/09/13 11:58:36;;;;;;;6.18;3.29;;;;;;;20.66;67.08;101351.58;;;;-58
2020/09/13 12:01:36;;;;;;;5.03;3.21;;;;;;;20.66;67.01;101349.88;;;;-58
2020/09/13 12:04:36;;;;;;;6.01;3.19;;;;;;;20.66;66.98;101350.20;;;;-58
2020/09/13 12:07:36;;;;;;;6.26;3.13;;;;;;;20.66;67.07;101342.05;;;;-61
2020/09/13 12:10:36;;;;;;;5.02;3.03;;;;;;;20.71;67.19;101341.14;;;;-51
2020/09/13 12:13:36;;;;;;;8.94;3.33;;;;;;;20.73;67.15;101339.05;;;;-57
2020/09/13 12:16:36;;;;;;;9.13;3.63;;;;;;;20.75;67.13;101335.25;;;;-56
2020/09/13 12:19:36;;;;;;;6.95;3.35;;;;;;;20.77;67.30;101332.19;;;;-56
2020/09/13 12:22:36;;;;;;;7.83;3.31;;;;;;;20.78;67.31;101331.16;;;;-60
2020/09/13 12:25:36;;;;;;;7.19;3.39;;;;;;;20.80;67.23;101326.63;;;;-56
2020/09/13 12:28:36;;;;;;;6.48;3.22;;;;;;;20.81;67.29;101329.81;;;;-56
2020/09/13 12:31:36;;;;;;;9.39;3.73;;;;;;;20.81;67.30;101327.77;;;;-56
2020/09/13 12:34:36;;;;;;;12.51;3.40;;;;;;;20.82;67.24;101321.13;;;;-55
2020/09/13 12:37:36;;;;;;;8.56;3.41;;;;;;;20.83;67.26;101322.27;;;;-57
2020/09/13 12:40:36;;;;;;;11.21;3.78;;;;;;;20.83;67.26;101322.91;;;;-57
2020/09/13 12:43:36;;;;;;;8.94;3.55;;;;;;;20.85;67.30;101320.58;;;;-56
2020/09/13 12:46:36;;;;;;;7.86;3.71;;;;;;;20.86;67.31;101317.84;;;;-56
2020/09/13 12:49:36;;;;;;;10.81;3.61;;;;;;;20.86;67.34;101314.58;;;;-58
2020/09/13 12:52:36;;;;;;;10.59;3.74;;;;;;;20.87;67.33;101311.00;;;;-59
2020/09/13 12:55:36;;;;;;;8.17;3.67;;;;;;;20.88;67.24;101310.54;;;;-57
2020/09/13 12:58:36;;;;;;;6.24;3.87;;;;;;;20.88;67.23;101311.52;;;;-59
2020/09/13 13:01:36;;;;;;;6.89;3.99;;;;;;;20.88;67.25;101310.12;;;;-60
2020/09/13 13:04:36;;;;;;;7.22;3.91;;;;;;;20.89;67.23;101301.41;;;;-57
2020/09/13 13:07:36;;;;;;;6.89;3.60;;;;;;;20.91;67.26;101305.44;;;;-57
2020/09/13 13:10:36;;;;;;;9.26;3.99;;;;;;;20.91;67.25;101298.10;;;;-57
2020/09/13 13:13:36;;;;;;;8.01;3.89;;;;;;;20.93;67.15;101297.48;;;;-59
2020/09/13 13:16:36;;;;;;;12.97;4.19;;;;;;;20.92;67.07;101291.86;;;;-57
2020/09/13 13:19:36;;;;;;;7.10;3.60;;;;;;;20.91;67.24;101290.11;;;;-57
2020/09/13 13:22:36;;;;;;;8.76;3.65;;;;;;;20.91;67.22;101287.18;;;;-58
2020/09/13 13:25:36;;;;;;;7.59;3.75;;;;;;;20.91;67.12;101287.27;;;;-56
2020/09/13 13:28:36;;;;;;;6.28;4.01;;;;;;;20.89;67.11;101286.99;;;;-56
2020/09/13 13:31:36;;;;;;;5.57;3.93;;;;;;;20.91;67.09;101288.73;;;;-58
2020/09/13 13:34:36;;;;;;;6.16;3.87;;;;;;;20.90;67.05;101284.41;;;;-57
2020/09/13 13:37:36;;;;;;;6.91;3.65;;;;;;;20.89;66.97;101281.86;;;;-57
2020/09/13 13:40:36;;;;;;;8.15;3.89;;;;;;;20.89;66.97;101281.69;;;;-58
2020/09/13 13:43:36;;;;;;;7.41;3.55;;;;;;;20.89;66.96;101278.44;;;;-57
2020/09/13 13:46:36;;;;;;;7.25;3.77;;;;;;;20.89;66.84;101277.86;;;;-56
2020/09/13 13:49:36;;;;;;;8.60;4.15;;;;;;;20.88;66.81;101279.50;;;;-56
2020/09/13 13:52:36;;;;;;;6.36;3.71;;;;;;;20.88;66.79;101278.03;;;;-57
2020/09/13 13:55:36;;;;;;;5.67;3.59;;;;;;;20.88;66.81;101276.64;;;;-58
2020/09/13 13:58:36;;;;;;;6.11;3.73;;;;;;;20.87;66.83;101271.64;;;;-58
2020/09/13 14:01:36;;;;;;;7.91;3.79;;;;;;;20.86;66.77;101270.42;;;;-56
2020/09/13 14:04:36;;;;;;;4.54;3.53;;;;;;;20.86;66.78;101268.30;;;;-57
2020/09/13 14:07:36;;;;;;;5.82;3.74;;;;;;;20.86;66.75;101264.64;;;;-58
2020/09/13 14:10:36;;;;;;;5.82;3.51;;;;;;;20.86;66.75;101262.11;;;;-57
2020/09/13 14:13:36;;;;;;;6.31;3.73;;;;;;;20.85;66.78;101259.64;;;;-56
2020/09/13 14:16:36;;;;;;;7.10;3.78;;;;;;;20.85;66.76;101261.02;;;;-57
2020/09/13 14:19:36;;;;;;;6.65;3.59;;;;;;;20.85;66.76;101255.97;;;;-57
2020/09/13 14:22:36;;;;;;;5.73;3.75;;;;;;;20.85;66.75;101254.91;;;;-57
2020/09/13 14:25:36;;;;;;;5.79;3.45;;;;;;;20.84;66.76;101258.91;;;;-57
2020/09/13 14:28:36;;;;;;;12.03;3.80;;;;;;;20.87;66.94;101258.52;;;;-50
2020/09/13 14:31:36;;;;;;;7.41;3.69;;;;;;;20.88;67.03;101257.82;;;;-50
2020/09/13 14:34:36;;;;;;;8.03;3.98;;;;;;;20.91;67.11;101256.95;;;;-52
2020/09/13 14:37:36;;;;;;;4.85;3.43;;;;;;;20.93;67.18;101258.69;;;;-54
2020/09/13 14:40:36;;;;;;;9.21;3.68;;;;;;;20.94;67.28;101257.83;;;;-59
2020/09/13 14:43:36;;;;;;;5.69;3.72;;;;;;;20.95;67.30;101250.32;;;;-58
2020/09/13 14:46:36;;;;;;;6.67;3.84;;;;;;;20.97;67.31;101256.14;;;;-60
2020/09/13 14:49:36;;;;;;;8.67;3.81;;;;;;;20.98;67.35;101255.75;;;;-59
2020/09/13 14:52:36;;;;;;;7.33;3.76;;;;;;;20.99;67.41;101251.35;;;;-57
2020/09/13 14:55:36;;;;;;;5.30;3.89;;;;;;;21.00;67.40;101251.79;;;;-57
2020/09/13 14:58:36;;;;;;;5.35;3.61;;;;;;;21.02;67.44;101249.83;;;;-53
2020/09/13 15:01:36;;;;;;;7.65;3.95;;;;;;;21.01;67.41;101245.27;;;;-56
2020/09/13 15:04:36;;;;;;;5.41;3.69;;;;;;;21.02;67.49;101249.58;;;;-51
2020/09/13 15:07:36;;;;;;;7.51;3.97;;;;;;;21.03;67.37;101250.84;;;;-56
2020/09/13 15:10:36;;;;;;;9.42;4.38;;;;;;;21.06;67.62;101247.84;;;;-56
2020/09/13 15:13:39;;;;;;;8.68;3.70;;;;;;;21.07;67.54;101243.30;;;;-58
2020/09/13 15:16:36;;;;;;;7.90;3.85;;;;;;;21.08;67.54;101244.77;;;;-57
2020/09/13 15:19:36;;;;;;;5.97;3.78;;;;;;;21.09;67.50;101242.44;;;;-61
2020/09/13 15:22:36;;;;;;;8.57;4.21;;;;;;;21.11;67.50;101245.80;;;;-54
2020/09/13 15:25:36;;;;;;;7.87;4.07;;;;;;;21.13;67.42;101242.08;;;;-57
2020/09/13 15:28:36;;;;;;;8.27;4.07;;;;;;;21.14;67.48;101238.17;;;;-58
2020/09/13 15:31:36;;;;;;;8.27;3.95;;;;;;;21.15;67.31;101232.24;;;;-49
2020/09/13 15:34:36;;;;;;;6.68;3.93;;;;;;;21.16;67.40;101236.39;;;;-51
2020/09/13 15:37:36;;;;;;;6.96;3.80;;;;;;;21.16;67.35;101232.48;;;;-58
2020/09/13 15:40:36;;;;;;;8.55;3.92;;;;;;;21.14;67.35;101227.08;;;;-57
2020/09/13 15:43:36;;;;;;;11.79;3.81;;;;;;;21.15;67.28;101227.19;;;;-57
2020/09/13 15:46:36;;;;;;;7.01;3.63;;;;;;;21.13;67.21;101228.88;;;;-57
2020/09/13 15:49:36;;;;;;;13.11;3.79;;;;;;;21.12;67.21;101227.55;;;;-56
2020/09/13 15:52:36;;;;;;;8.26;3.82;;;;;;;21.14;67.26;101223.58;;;;-52
2020/09/13 15:55:36;;;;;;;10.29;3.60;;;;;;;21.15;67.21;101223.44;;;;-54
2020/09/13 15:58:36;;;;;;;10.22;3.85;;;;;;;21.16;67.17;101222.22;;;;-52
2020/09/13 16:01:36;;;;;;;9.06;3.87;;;;;;;21.18;67.23;101223.95;;;;-53
2020/09/13 16:04:36;;;;;;;8.23;3.59;;;;;;;21.17;67.19;101219.39;;;;-53
2020/09/13 16:07:36;;;;;;;8.61;3.80;;;;;;;21.19;67.27;101219.09;;;;-52
2020/09/13 16:10:36;;;;;;;7.44;3.76;;;;;;;21.19;67.32;101218.67;;;;-54
2020/09/13 16:13:36;;;;;;;9.75;3.84;;;;;;;21.20;67.20;101221.94;;;;-53
2020/09/13 16:16:36;;;;;;;9.08;3.71;;;;;;;21.20;67.27;101216.23;;;;-54
2020/09/13 16:19:36;;;;;;;7.36;3.81;;;;;;;21.20;67.21;101219.33;;;;-56
2020/09/13 16:22:36;;;;;;;9.55;3.79;;;;;;;21.22;67.24;101216.09;;;;-59
2020/09/13 16:25:36;;;;;;;9.83;4.14;;;;;;;21.22;67.18;101214.78;;;;-56
2020/09/13 16:28:36;;;;;;;8.57;3.53;;;;;;;21.22;67.23;101212.58;;;;-51
2020/09/13 16:31:36;;;;;;;6.42;3.43;;;;;;;21.23;67.19;101214.95;;;;-59
2020/09/13 16:34:36;;;;;;;6.65;3.57;;;;;;;21.22;67.29;101219.19;;;;-54
2020/09/13 16:37:36;;;;;;;6.17;3.65;;;;;;;21.23;67.27;101214.16;;;;-57
2020/09/13 16:40:36;;;;;;;7.44;3.60;;;;;;;21.22;67.27;101210.22;;;;-50